sensor_id;sensor_type;location;lat;lon;timestamp;pressure;altitude;pressure_sealevel;temperature;humidity
33625;BME280;19962;47.820;1.930;2024-02-21T00:01:07;101574.38;;;9.86;86.07
33625;BME280;19962;47.820;1.930;2024-02-21T00:03:33;101569.72;;;9.86;85.99
33625;BME280;19962;47.820;1.930;2024-02-21T00:05:59;101570.38;;;9.88;85.95
33625;BME280;19962;47.820;1.930;2024-02-21T00:08:25;101563.41;;;9.86;86.17
33625;BME280;19962;47.820;1.930;2024-02-21T00:10:51;101569.28;;;9.82;86.37
33625;BME280;19962;47.820;1.930;2024-02-21T00:13:17;101558.75;;;9.86;86.05
33625;BME280;19962;47.820;1.930;2024-02-21T00:15:43;101563.81;;;9.82;85.97
33625;BME280;19962;47.820;1.930;2024-02-21T00:18:09;101556.19;;;9.78;86.35
33625;BME280;19962;47.820;1.930;2024-02-21T00:20:36;101535.50;;;9.75;86.46
33625;BME280;19962;47.820;1.930;2024-02-21T00:23:03;101540.78;;;9.77;86.42
33625;BME280;19962;47.820;1.930;2024-02-21T00:25:29;101540.16;;;9.75;86.49
33625;BME280;19962;47.820;1.930;2024-02-21T00:27:55;101539.28;;;9.74;86.36
33625;BME280;19962;47.820;1.930;2024-02-21T00:30:21;101547.72;;;9.73;86.30
33625;BME280;19962;47.820;1.930;2024-02-21T00:32:47;101540.34;;;9.73;86.31
33625;BME280;19962;47.820;1.930;2024-02-21T00:35:14;101541.84;;;9.76;86.54
33625;BME280;19962;47.820;1.930;2024-02-21T00:37:40;101548.97;;;9.70;86.63
33625;BME280;19962;47.820;1.930;2024-02-21T00:40:07;101539.72;;;9.72;86.57
33625;BME280;19962;47.820;1.930;2024-02-21T00:42:33;101527.91;;;9.71;86.28
33625;BME280;19962;47.820;1.930;2024-02-21T00:44:59;101526.63;;;9.73;86.20
33625;BME280;19962;47.820;1.930;2024-02-21T00:47:25;101519.28;;;9.74;86.28
33625;BME280;19962;47.820;1.930;2024-02-21T00:49:51;101517.78;;;9.72;86.05
33625;BME280;19962;47.820;1.930;2024-02-21T00:52:18;101500.50;;;9.71;86.14
33625;BME280;19962;47.820;1.930;2024-02-21T00:54:44;101481.75;;;9.74;86.22
33625;BME280;19962;47.820;1.930;2024-02-21T00:57:10;101479.22;;;9.79;86.24
33625;BME280;19962;47.820;1.930;2024-02-21T00:59:37;101470.63;;;9.82;85.79
33625;BME280;19962;47.820;1.930;2024-02-21T01:02:03;101481.97;;;9.79;85.96
33625;BME280;19962;47.820;1.930;2024-02-21T01:04:29;101474.81;;;9.78;86.13
33625;BME280;19962;47.820;1.930;2024-02-21T01:06:55;101469.72;;;9.75;86.24
33625;BME280;19962;47.820;1.930;2024-02-21T01:09:21;101460.94;;;9.87;85.99
33625;BME280;19962;47.820;1.930;2024-02-21T01:11:47;101461.81;;;9.87;85.90
33625;BME280;19962;47.820;1.930;2024-02-21T01:14:13;101468.53;;;9.85;85.88
33625;BME280;19962;47.820;1.930;2024-02-21T01:16:40;101456.91;;;9.82;85.92
33625;BME280;19962;47.820;1.930;2024-02-21T01:19:06;101451.22;;;9.84;85.87
33625;BME280;19962;47.820;1.930;2024-02-21T01:21:32;101451.44;;;9.82;86.06
33625;BME280;19962;47.820;1.930;2024-02-21T01:23:58;101449.94;;;9.80;86.04
33625;BME280;19962;47.820;1.930;2024-02-21T01:26:24;101453.53;;;9.81;86.23
33625;BME280;19962;47.820;1.930;2024-02-21T01:28:50;101434.09;;;9.75;86.32
33625;BME280;19962;47.820;1.930;2024-02-21T01:31:16;101434.09;;;9.75;86.20
33625;BME280;19962;47.820;1.930;2024-02-21T01:33:42;101419.19;;;9.78;86.44
33625;BME280;19962;47.820;1.930;2024-02-21T01:36:08;101426.34;;;9.79;86.33
33625;BME280;19962;47.820;1.930;2024-02-21T01:38:35;101423.41;;;9.81;86.37
33625;BME280;19962;47.820;1.930;2024-02-21T01:41:01;101416.66;;;9.83;86.13
33625;BME280;19962;47.820;1.930;2024-02-21T01:43:27;101421.69;;;9.79;86.25
33625;BME280;19962;47.820;1.930;2024-02-21T01:45:55;101422.50;;;9.73;86.13
33625;BME280;19962;47.820;1.930;2024-02-21T01:48:23;101414.06;;;9.68;86.54
33625;BME280;19962;47.820;1.930;2024-02-21T01:50:54;101409.63;;;9.68;86.58
33625;BME280;19962;47.820;1.930;2024-02-21T01:53:35;101395.31;;;9.72;86.60
33625;BME280;19962;47.820;1.930;2024-02-21T01:56:03;101384.13;;;9.67;86.58
33625;BME280;19962;47.820;1.930;2024-02-21T01:58:31;101382.88;;;9.69;86.16
33625;BME280;19962;47.820;1.930;2024-02-21T02:00:59;101381.19;;;9.68;86.23
33625;BME280;19962;47.820;1.930;2024-02-21T02:03:26;101396.34;;;9.64;86.36
33625;BME280;19962;47.820;1.930;2024-02-21T02:05:52;101424.13;;;9.61;86.56
33625;BME280;19962;47.820;1.930;2024-02-21T02:08:22;101404.94;;;9.61;86.23
33625;BME280;19962;47.820;1.930;2024-02-21T02:10:48;101402.63;;;9.58;86.66
33625;BME280;19962;47.820;1.930;2024-02-21T02:13:15;101395.88;;;9.54;86.44
33625;BME280;19962;47.820;1.930;2024-02-21T02:15:44;101392.91;;;9.49;86.35
33625;BME280;19962;47.820;1.930;2024-02-21T02:18:11;101392.00;;;9.42;86.67
33625;BME280;19962;47.820;1.930;2024-02-21T02:20:38;101384.00;;;9.41;86.77
33625;BME280;19962;47.820;1.930;2024-02-21T02:23:11;101374.53;;;9.43;86.80
33625;BME280;19962;47.820;1.930;2024-02-21T02:25:38;101375.56;;;9.42;86.42
33625;BME280;19962;47.820;1.930;2024-02-21T02:28:06;101371.56;;;9.38;86.54
33625;BME280;19962;47.820;1.930;2024-02-21T02:30:34;101360.41;;;9.40;86.67
33625;BME280;19962;47.820;1.930;2024-02-21T02:33:02;101358.09;;;9.43;86.31
33625;BME280;19962;47.820;1.930;2024-02-21T02:35:28;101353.69;;;9.49;86.12
33625;BME280;19962;47.820;1.930;2024-02-21T02:37:54;101351.59;;;9.51;85.89
33625;BME280;19962;47.820;1.930;2024-02-21T02:40:21;101351.34;;;9.46;86.10
33625;BME280;19962;47.820;1.930;2024-02-21T02:42:47;101344.38;;;9.43;86.17
33625;BME280;19962;47.820;1.930;2024-02-21T02:45:15;101339.34;;;9.40;86.65
33625;BME280;19962;47.820;1.930;2024-02-21T02:47:41;101347.34;;;9.48;86.38
33625;BME280;19962;47.820;1.930;2024-02-21T02:50:08;101338.13;;;9.49;86.24
33625;BME280;19962;47.820;1.930;2024-02-21T02:52:34;101325.28;;;9.56;86.38
33625;BME280;19962;47.820;1.930;2024-02-21T02:55:00;101316.44;;;9.54;86.15
33625;BME280;19962;47.820;1.930;2024-02-21T02:57:27;101312.22;;;9.58;86.23
33625;BME280;19962;47.820;1.930;2024-02-21T02:59:53;101320.03;;;9.61;85.96
33625;BME280;19962;47.820;1.930;2024-02-21T03:02:20;101320.03;;;9.61;85.76
33625;BME280;19962;47.820;1.930;2024-02-21T03:04:46;101313.91;;;9.59;86.08
33625;BME280;19962;47.820;1.930;2024-02-21T03:07:13;101321.28;;;9.59;85.86
33625;BME280;19962;47.820;1.930;2024-02-21T03:09:40;101327.63;;;9.59;86.29
33625;BME280;19962;47.820;1.930;2024-02-21T03:12:06;101314.78;;;9.60;85.93
33625;BME280;19962;47.820;1.930;2024-02-21T03:14:33;101309.91;;;9.55;86.02
33625;BME280;19962;47.820;1.930;2024-02-21T03:16:59;101309.03;;;9.55;86.28
33625;BME280;19962;47.820;1.930;2024-02-21T03:19:26;101308.22;;;9.54;86.27
33625;BME280;19962;47.820;1.930;2024-02-21T03:21:52;101302.72;;;9.54;86.29
33625;BME280;19962;47.820;1.930;2024-02-21T03:24:22;101300.41;;;9.51;86.18
33625;BME280;19962;47.820;1.930;2024-02-21T03:26:48;101289.63;;;9.50;86.22
33625;BME280;19962;47.820;1.930;2024-02-21T03:29:17;101288.81;;;9.49;86.25
33625;BME280;19962;47.820;1.930;2024-02-21T03:31:43;101287.34;;;9.47;86.45
33625;BME280;19962;47.820;1.930;2024-02-21T03:34:12;101278.88;;;9.48;86.22
33625;BME280;19962;47.820;1.930;2024-02-21T03:36:38;101271.53;;;9.55;86.00
33625;BME280;19962;47.820;1.930;2024-02-21T03:39:04;101273.69;;;9.60;86.04
33625;BME280;19962;47.820;1.930;2024-02-21T03:41:31;101266.69;;;9.57;85.73
33625;BME280;19962;47.820;1.930;2024-02-21T03:43:57;101266.06;;;9.55;85.98
33625;BME280;19962;47.820;1.930;2024-02-21T03:46:24;101263.53;;;9.54;86.20
33625;BME280;19962;47.820;1.930;2024-02-21T03:48:51;101256.38;;;9.53;86.14
33625;BME280;19962;47.820;1.930;2024-02-21T03:51:17;101254.91;;;9.57;86.32
33625;BME280;19962;47.820;1.930;2024-02-21T03:53:43;101253.00;;;9.57;85.86
33625;BME280;19962;47.820;1.930;2024-02-21T03:56:09;101250.50;;;9.56;86.08
33625;BME280;19962;47.820;1.930;2024-02-21T03:58:35;101242.88;;;9.51;86.09
33625;BME280;19962;47.820;1.930;2024-02-21T04:01:02;101242.66;;;9.46;86.23
33625;BME280;19962;47.820;1.930;2024-02-21T04:03:28;101222.63;;;9.52;86.42
33625;BME280;19962;47.820;1.930;2024-02-21T04:05:54;101215.28;;;9.59;85.90
33625;BME280;19962;47.820;1.930;2024-02-21T04:08:21;101221.81;;;9.52;85.97
33625;BME280;19962;47.820;1.930;2024-02-21T04:10:47;101215.47;;;9.51;85.89
33625;BME280;19962;47.820;1.930;2024-02-21T04:13:13;101215.47;;;9.51;86.15
33625;BME280;19962;47.820;1.930;2024-02-21T04:15:39;101212.34;;;9.54;86.32
33625;BME280;19962;47.820;1.930;2024-02-21T04:18:06;101204.75;;;9.56;86.12
33625;BME280;19962;47.820;1.930;2024-02-21T04:20:32;101205.59;;;9.57;86.21
33625;BME280;19962;47.820;1.930;2024-02-21T04:22:58;101208.75;;;9.60;85.87
33625;BME280;19962;47.820;1.930;2024-02-21T04:25:25;101210.44;;;9.61;85.97
33625;BME280;19962;47.820;1.930;2024-02-21T04:27:51;101216.97;;;9.67;85.64
33625;BME280;19962;47.820;1.930;2024-02-21T04:30:17;101217.19;;;9.72;85.68
33625;BME280;19962;47.820;1.930;2024-02-21T04:32:44;101225.22;;;9.73;85.46
33625;BME280;19962;47.820;1.930;2024-02-21T04:35:10;101217.41;;;9.70;85.53
33625;BME280;19962;47.820;1.930;2024-02-21T04:37:36;101212.97;;;9.69;85.70
33625;BME280;19962;47.820;1.930;2024-02-21T04:40:02;101219.13;;;9.72;85.53
33625;BME280;19962;47.820;1.930;2024-02-21T04:42:28;101217.19;;;9.72;85.69
33625;BME280;19962;47.820;1.930;2024-02-21T04:44:54;101207.50;;;9.69;85.63
33625;BME280;19962;47.820;1.930;2024-02-21T04:47:20;101201.63;;;9.73;85.53
33625;BME280;19962;47.820;1.930;2024-02-21T04:49:46;101212.56;;;9.73;85.39
33625;BME280;19962;47.820;1.930;2024-02-21T04:52:13;101221.19;;;9.69;85.52
33625;BME280;19962;47.820;1.930;2024-02-21T04:54:39;101218.69;;;9.74;85.58
33625;BME280;19962;47.820;1.930;2024-02-21T04:57:05;101209.00;;;9.78;85.49
33625;BME280;19962;47.820;1.930;2024-02-21T04:59:32;101219.13;;;9.78;85.47
33625;BME280;19962;47.820;1.930;2024-02-21T05:01:58;101203.50;;;9.78;85.41
33625;BME280;19962;47.820;1.930;2024-02-21T05:04:24;101196.97;;;9.79;85.43
33625;BME280;19962;47.820;1.930;2024-02-21T05:06:50;101196.34;;;9.77;85.43
33625;BME280;19962;47.820;1.930;2024-02-21T05:09:16;101187.91;;;9.79;85.38
33625;BME280;19962;47.820;1.930;2024-02-21T05:11:42;101178.03;;;9.85;85.27
33625;BME280;19962;47.820;1.930;2024-02-21T05:14:08;101180.31;;;9.81;85.28
33625;BME280;19962;47.820;1.930;2024-02-21T05:16:34;101178.66;;;9.80;85.30
33625;BME280;19962;47.820;1.930;2024-02-21T05:19:01;101159.88;;;9.83;85.42
33625;BME280;19962;47.820;1.930;2024-02-21T05:21:27;101167.47;;;9.82;85.15
33625;BME280;19962;47.820;1.930;2024-02-21T05:23:54;101161.13;;;9.88;84.91
33625;BME280;19962;47.820;1.930;2024-02-21T05:26:27;101157.78;;;9.86;85.00
33625;BME280;19962;47.820;1.930;2024-02-21T05:28:53;101155.66;;;9.81;85.14
33625;BME280;19962;47.820;1.930;2024-02-21T05:31:19;101145.13;;;9.85;85.17
33625;BME280;19962;47.820;1.930;2024-02-21T05:33:46;101155.44;;;9.89;84.75
33625;BME280;19962;47.820;1.930;2024-02-21T05:36:13;101144.91;;;9.86;85.00
33625;BME280;19962;47.820;1.930;2024-02-21T05:38:39;101137.53;;;9.87;84.99
33625;BME280;19962;47.820;1.930;2024-02-21T05:41:06;101139.88;;;9.90;84.54
33625;BME280;19962;47.820;1.930;2024-02-21T05:43:32;101144.28;;;9.84;84.88
33625;BME280;19962;47.820;1.930;2024-02-21T05:45:58;101146.16;;;9.83;85.09
33625;BME280;19962;47.820;1.930;2024-02-21T05:48:24;101132.91;;;9.81;84.96
33625;BME280;19962;47.820;1.930;2024-02-21T05:50:51;101135.84;;;9.79;85.31
33625;BME280;19962;47.820;1.930;2024-02-21T05:53:17;101130.38;;;9.86;85.00
33625;BME280;19962;47.820;1.930;2024-02-21T05:55:43;101122.97;;;9.86;84.82
33625;BME280;19962;47.820;1.930;2024-02-21T05:58:09;101118.97;;;9.95;84.60
33625;BME280;19962;47.820;1.930;2024-02-21T06:00:39;101107.78;;;9.97;84.40
33625;BME280;19962;47.820;1.930;2024-02-21T06:03:05;101118.97;;;9.88;84.55
33625;BME280;19962;47.820;1.930;2024-02-21T06:05:35;101109.72;;;9.90;84.61
33625;BME280;19962;47.820;1.930;2024-02-21T06:08:01;101104.25;;;9.83;84.84
33625;BME280;19962;47.820;1.930;2024-02-21T06:10:27;101110.13;;;9.80;85.14
33625;BME280;19962;47.820;1.930;2024-02-21T06:12:53;101104.66;;;9.87;85.10
33625;BME280;19962;47.820;1.930;2024-02-21T06:15:19;101095.81;;;9.85;84.99
33625;BME280;19962;47.820;1.930;2024-02-21T06:17:45;101084.59;;;9.93;84.88
33625;BME280;19962;47.820;1.930;2024-02-21T06:20:12;101094.75;;;9.92;84.68
33625;BME280;19962;47.820;1.930;2024-02-21T06:22:38;101094.94;;;9.91;84.79
33625;BME280;19962;47.820;1.930;2024-02-21T06:25:04;101101.25;;;9.91;84.83
33625;BME280;19962;47.820;1.930;2024-02-21T06:27:30;101102.09;;;9.92;84.87
33625;BME280;19962;47.820;1.930;2024-02-21T06:29:56;101095.34;;;9.94;84.83
33625;BME280;19962;47.820;1.930;2024-02-21T06:32:22;101091.13;;;9.98;84.62
33625;BME280;19962;47.820;1.930;2024-02-21T06:34:48;101081.84;;;9.99;84.36
33625;BME280;19962;47.820;1.930;2024-02-21T06:37:14;101079.31;;;9.98;84.05
33625;BME280;19962;47.820;1.930;2024-02-21T06:39:40;101084.81;;;9.91;84.39
33625;BME280;19962;47.820;1.930;2024-02-21T06:42:06;101069.63;;;9.88;84.90
33625;BME280;19962;47.820;1.930;2024-02-21T06:44:32;101064.38;;;9.94;84.50
33625;BME280;19962;47.820;1.930;2024-02-21T06:47:02;101067.53;;;9.91;84.12
33625;BME280;19962;47.820;1.930;2024-02-21T06:49:28;101067.34;;;9.86;84.77
33625;BME280;19962;47.820;1.930;2024-02-21T06:51:54;101067.97;;;9.88;84.79
33625;BME280;19962;47.820;1.930;2024-02-21T06:54:20;101071.34;;;9.96;84.32
33625;BME280;19962;47.820;1.930;2024-02-21T06:56:46;101080.38;;;9.90;84.70
33625;BME280;19962;47.820;1.930;2024-02-21T06:59:12;101064.38;;;9.94;84.63
33625;BME280;19962;47.820;1.930;2024-02-21T07:01:48;101057.63;;;9.96;83.95
33625;BME280;19962;47.820;1.930;2024-02-21T07:04:15;101061.41;;;9.95;84.52
33625;BME280;19962;47.820;1.930;2024-02-21T07:06:41;101051.91;;;9.98;84.15
33625;BME280;19962;47.820;1.930;2024-02-21T07:09:07;101053.63;;;9.92;84.40
33625;BME280;19962;47.820;1.930;2024-02-21T07:11:33;101054.03;;;9.96;84.44
33625;BME280;19962;47.820;1.930;2024-02-21T07:13:59;101057.81;;;10.01;84.10
33625;BME280;19962;47.820;1.930;2024-02-21T07:16:25;101042.19;;;10.02;83.78
33625;BME280;19962;47.820;1.930;2024-02-21T07:18:52;101051.06;;;10.04;84.18
33625;BME280;19962;47.820;1.930;2024-02-21T07:21:18;101041.16;;;10.03;84.30
33625;BME280;19962;47.820;1.930;2024-02-21T07:23:44;101047.09;;;10.06;84.35
33625;BME280;19962;47.820;1.930;2024-02-21T07:26:10;101046.88;;;10.08;84.30
33625;BME280;19962;47.820;1.930;2024-02-21T07:28:36;101044.31;;;10.13;83.99
33625;BME280;19962;47.820;1.930;2024-02-21T07:31:02;101040.72;;;10.12;83.91
33625;BME280;19962;47.820;1.930;2024-02-21T07:33:29;101032.28;;;10.14;84.08
33625;BME280;19962;47.820;1.930;2024-02-21T07:35:56;101036.28;;;10.18;83.84
33625;BME280;19962;47.820;1.930;2024-02-21T07:38:22;101035.41;;;10.24;83.70
33625;BME280;19962;47.820;1.930;2024-02-21T07:40:48;101034.56;;;10.30;83.38
33625;BME280;19962;47.820;1.930;2024-02-21T07:43:14;101031.56;;;10.38;83.26
33625;BME280;19962;47.820;1.930;2024-02-21T07:45:40;101036.47;;;10.29;83.33
33625;BME280;19962;47.820;1.930;2024-02-21T07:48:07;101028.63;;;10.33;83.57
33625;BME280;19962;47.820;1.930;2024-02-21T07:50:33;101037.03;;;10.38;83.27
33625;BME280;19962;47.820;1.930;2024-02-21T07:52:59;101036.00;;;10.39;83.39
33625;BME280;19962;47.820;1.930;2024-02-21T07:55:25;101022.91;;;10.41;83.20
33625;BME280;19962;47.820;1.930;2024-02-21T07:57:51;101024.59;;;10.42;83.07
33625;BME280;19962;47.820;1.930;2024-02-21T08:00:18;101017.63;;;10.39;82.95
33625;BME280;19962;47.820;1.930;2024-02-21T08:02:47;101009.41;;;10.39;83.04
33625;BME280;19962;47.820;1.930;2024-02-21T08:05:14;101011.06;;;10.47;83.17
33625;BME280;19962;47.820;1.930;2024-02-21T08:07:40;101004.53;;;10.48;82.98
33625;BME280;19962;47.820;1.930;2024-02-21T08:10:06;100999.44;;;10.51;82.43
33625;BME280;19962;47.820;1.930;2024-02-21T08:12:34;100991.44;;;10.50;82.74
33625;BME280;19962;47.820;1.930;2024-02-21T08:15:01;100988.47;;;10.51;82.74
33625;BME280;19962;47.820;1.930;2024-02-21T08:17:29;100980.88;;;10.47;82.84
33625;BME280;19962;47.820;1.930;2024-02-21T08:19:55;100972.81;;;10.58;82.85
33625;BME280;19962;47.820;1.930;2024-02-21T08:22:22;100981.22;;;10.63;82.14
33625;BME280;19962;47.820;1.930;2024-02-21T08:24:48;100977.84;;;10.61;82.66
33625;BME280;19962;47.820;1.930;2024-02-21T08:27:14;100970.69;;;10.60;82.76
33625;BME280;19962;47.820;1.930;2024-02-21T08:29:40;100963.28;;;10.67;82.41
33625;BME280;19962;47.820;1.930;2024-02-21T08:32:06;100962.84;;;10.64;82.65
33625;BME280;19962;47.820;1.930;2024-02-21T08:34:32;100970.66;;;10.67;82.49
33625;BME280;19962;47.820;1.930;2024-02-21T08:37:00;100965.97;;;10.74;82.50
33625;BME280;19962;47.820;1.930;2024-02-21T08:39:26;100951.19;;;10.75;82.61
33625;BME280;19962;47.820;1.930;2024-02-21T08:41:54;100959.59;;;10.80;82.06
33625;BME280;19962;47.820;1.930;2024-02-21T08:44:22;100953.47;;;10.78;82.36
33625;BME280;19962;47.820;1.930;2024-02-21T08:46:48;100965.03;;;10.86;82.08
33625;BME280;19962;47.820;1.930;2024-02-21T08:49:14;100957.41;;;10.88;82.17
33625;BME280;19962;47.820;1.930;2024-02-21T08:51:40;100951.84;;;10.95;81.98
33625;BME280;19962;47.820;1.930;2024-02-21T08:54:06;100966.16;;;11.03;82.06
33625;BME280;19962;47.820;1.930;2024-02-21T08:56:33;100964.66;;;11.07;82.19
33625;BME280;19962;47.820;1.930;2024-02-21T08:59:01;100963.91;;;11.18;81.83
33625;BME280;19962;47.820;1.930;2024-02-21T09:01:27;100967.28;;;11.20;81.77
33625;BME280;19962;47.820;1.930;2024-02-21T09:03:54;100968.13;;;11.21;81.97
33625;BME280;19962;47.820;1.930;2024-02-21T09:06:22;100958.97;;;11.27;81.60
33625;BME280;19962;47.820;1.930;2024-02-21T09:08:49;100954.13;;;11.29;81.62
33625;BME280;19962;47.820;1.930;2024-02-21T09:11:15;100958.91;;;11.33;81.36
33625;BME280;19962;47.820;1.930;2024-02-21T09:13:41;100943.88;;;11.36;81.55
33625;BME280;19962;47.820;1.930;2024-02-21T09:16:07;100943.38;;;11.45;81.28
33625;BME280;19962;47.820;1.930;2024-02-21T09:18:34;100933.56;;;11.56;80.85
33625;BME280;19962;47.820;1.930;2024-02-21T09:21:01;100935.28;;;11.50;80.47
33625;BME280;19962;47.820;1.930;2024-02-21T09:23:27;100923.88;;;11.53;80.57
33625;BME280;19962;47.820;1.930;2024-02-21T09:25:53;100895.09;;;11.56;80.54
33625;BME280;19962;47.820;1.930;2024-02-21T09:28:22;100887.91;;;11.55;80.16
33625;BME280;19962;47.820;1.930;2024-02-21T09:30:48;100904.63;;;11.53;80.09
33625;BME280;19962;47.820;1.930;2024-02-21T09:33:14;100905.44;;;11.54;80.59
33625;BME280;19962;47.820;1.930;2024-02-21T09:35:40;100920.00;;;11.61;80.71
33625;BME280;19962;47.820;1.930;2024-02-21T09:38:06;100925.44;;;11.67;80.10
33625;BME280;19962;47.820;1.930;2024-02-21T09:40:33;100926.03;;;11.69;79.96
33625;BME280;19962;47.820;1.930;2024-02-21T09:43:04;100910.59;;;11.68;79.98
33625;BME280;19962;47.820;1.930;2024-02-21T09:45:34;100919.47;;;11.70;79.98
33625;BME280;19962;47.820;1.930;2024-02-21T09:48:19;100904.22;;;11.74;80.02
33625;BME280;19962;47.820;1.930;2024-02-21T09:50:51;100900.75;;;11.79;79.87
33625;BME280;19962;47.820;1.930;2024-02-21T09:53:19;100899.84;;;11.85;79.70
33625;BME280;19962;47.820;1.930;2024-02-21T09:55:46;100893.44;;;11.91;79.77
33625;BME280;19962;47.820;1.930;2024-02-21T09:58:12;100891.69;;;11.96;79.23
33625;BME280;19962;47.820;1.930;2024-02-21T10:00:39;100890.75;;;12.02;78.97
33625;BME280;19962;47.820;1.930;2024-02-21T10:03:05;100880.13;;;12.06;78.81
33625;BME280;19962;47.820;1.930;2024-02-21T10:05:38;100878.44;;;12.05;78.75
33625;BME280;19962;47.820;1.930;2024-02-21T10:08:05;100870.56;;;12.08;79.10
33625;BME280;19962;47.820;1.930;2024-02-21T10:10:44;100858.13;;;12.06;78.76
33625;BME280;19962;47.820;1.930;2024-02-21T10:13:27;100860.72;;;12.01;79.04
33625;BME280;19962;47.820;1.930;2024-02-21T10:16:07;100870.66;;;12.02;78.33
33625;BME280;19962;47.820;1.930;2024-02-21T10:18:34;100861.72;;;12.06;78.93
33625;BME280;19962;47.820;1.930;2024-02-21T10:21:10;100865.19;;;12.13;78.33
33625;BME280;19962;47.820;1.930;2024-02-21T10:23:49;100847.16;;;12.17;78.27
33625;BME280;19962;47.820;1.930;2024-02-21T10:26:16;100829.13;;;12.21;78.38
33625;BME280;19962;47.820;1.930;2024-02-21T10:28:42;100832.00;;;12.26;78.37
33625;BME280;19962;47.820;1.930;2024-02-21T10:31:11;100836.81;;;12.31;78.00
33625;BME280;19962;47.820;1.930;2024-02-21T10:33:57;100832.66;;;12.40;77.87
33625;BME280;19962;47.820;1.930;2024-02-21T10:36:24;100837.56;;;12.49;77.49
33625;BME280;19962;47.820;1.930;2024-02-21T10:38:51;100828.16;;;12.57;77.41
33625;BME280;19962;47.820;1.930;2024-02-21T10:41:20;100817.63;;;12.65;77.15
33625;BME280;19962;47.820;1.930;2024-02-21T10:43:52;100814.16;;;12.70;76.92
33625;BME280;19962;47.820;1.930;2024-02-21T10:46:21;100807.59;;;12.71;76.38
33625;BME280;19962;47.820;1.930;2024-02-21T10:48:52;100812.59;;;12.74;76.56
33625;BME280;19962;47.820;1.930;2024-02-21T10:51:20;100807.09;;;12.74;76.46
33625;BME280;19962;47.820;1.930;2024-02-21T10:54:36;100790.84;;;12.72;75.85
33625;BME280;19962;47.820;1.930;2024-02-21T10:57:05;100782.19;;;12.69;76.40
33625;BME280;19962;47.820;1.930;2024-02-21T10:59:32;100784.81;;;12.64;76.11
33625;BME280;19962;47.820;1.930;2024-02-21T11:01:59;100781.94;;;12.59;76.37
33625;BME280;19962;47.820;1.930;2024-02-21T11:04:26;100767.50;;;12.63;76.31
33625;BME280;19962;47.820;1.930;2024-02-21T11:06:52;100768.41;;;12.46;76.57
33625;BME280;19962;47.820;1.930;2024-02-21T11:09:18;100773.22;;;12.50;76.22
33625;BME280;19962;47.820;1.930;2024-02-21T11:11:56;100763.75;;;12.58;76.08
33625;BME280;19962;47.820;1.930;2024-02-21T11:14:27;100754.88;;;12.56;75.92
33625;BME280;19962;47.820;1.930;2024-02-21T11:16:54;100756.72;;;12.62;76.26
33625;BME280;19962;47.820;1.930;2024-02-21T11:19:31;100755.16;;;12.66;75.74
33625;BME280;19962;47.820;1.930;2024-02-21T11:21:57;100756.22;;;12.65;76.04
33625;BME280;19962;47.820;1.930;2024-02-21T11:24:31;100740.53;;;12.54;76.14
33625;BME280;19962;47.820;1.930;2024-02-21T11:27:12;100740.53;;;12.54;76.48
33625;BME280;19962;47.820;1.930;2024-02-21T11:29:49;100743.53;;;12.64;76.36
33625;BME280;19962;47.820;1.930;2024-02-21T11:32:18;100728.00;;;12.58;76.27
33625;BME280;19962;47.820;1.930;2024-02-21T11:34:57;100724.16;;;12.59;75.94
33625;BME280;19962;47.820;1.930;2024-02-21T11:37:34;100714.69;;;12.55;76.06
33625;BME280;19962;47.820;1.930;2024-02-21T11:40:03;100711.00;;;12.61;76.37
33625;BME280;19962;47.820;1.930;2024-02-21T11:42:30;100702.13;;;12.70;76.18
33625;BME280;19962;47.820;1.930;2024-02-21T11:44:57;100696.50;;;12.77;75.98
33625;BME280;19962;47.820;1.930;2024-02-21T11:47:23;100677.09;;;12.83;75.89
33625;BME280;19962;47.820;1.930;2024-02-21T11:49:50;100685.81;;;12.80;75.58
33625;BME280;19962;47.820;1.930;2024-02-21T11:52:23;100678.06;;;12.89;75.59
33625;BME280;19962;47.820;1.930;2024-02-21T11:54:53;100674.22;;;12.90;75.38
33625;BME280;19962;47.820;1.930;2024-02-21T11:57:20;100665.09;;;12.89;75.18
33625;BME280;19962;47.820;1.930;2024-02-21T11:59:47;100663.31;;;12.95;75.37
33625;BME280;19962;47.820;1.930;2024-02-21T12:02:14;100651.09;;;12.91;75.20
33625;BME280;19962;47.820;1.930;2024-02-21T12:04:41;100648.56;;;12.89;75.05
33625;BME280;19962;47.820;1.930;2024-02-21T12:07:08;100622.00;;;12.95;75.26
33625;BME280;19962;47.820;1.930;2024-02-21T12:09:34;100616.84;;;12.98;75.04
33625;BME280;19962;47.820;1.930;2024-02-21T12:12:05;100608.47;;;12.93;74.54
33625;BME280;19962;47.820;1.930;2024-02-21T12:14:35;100619.72;;;12.92;74.72
33625;BME280;19962;47.820;1.930;2024-02-21T12:17:02;100613.72;;;12.95;74.53
33625;BME280;19962;47.820;1.930;2024-02-21T12:19:32;100603.47;;;12.90;74.54
33625;BME280;19962;47.820;1.930;2024-02-21T12:22:00;100597.84;;;12.85;74.43
33625;BME280;19962;47.820;1.930;2024-02-21T12:24:27;100594.25;;;12.85;74.36
33625;BME280;19962;47.820;1.930;2024-02-21T12:26:55;100596.25;;;12.89;74.67
33625;BME280;19962;47.820;1.930;2024-02-21T12:29:23;100578.69;;;12.90;74.88
33625;BME280;19962;47.820;1.930;2024-02-21T12:31:51;100580.69;;;12.95;74.52
33625;BME280;19962;47.820;1.930;2024-02-21T12:34:17;100580.25;;;12.98;74.42
33625;BME280;19962;47.820;1.930;2024-02-21T12:36:44;100568.13;;;12.99;74.44
33625;BME280;19962;47.820;1.930;2024-02-21T12:39:11;100559.50;;;13.07;74.32
33625;BME280;19962;47.820;1.930;2024-02-21T12:41:37;100548.81;;;13.10;74.21
33625;BME280;19962;47.820;1.930;2024-02-21T12:44:10;100547.28;;;13.03;74.49
33625;BME280;19962;47.820;1.930;2024-02-21T12:46:37;100539.59;;;13.05;74.41
33625;BME280;19962;47.820;1.930;2024-02-21T12:49:04;100532.66;;;13.02;74.61
33625;BME280;19962;47.820;1.930;2024-02-21T12:51:31;100538.41;;;13.12;74.70
33625;BME280;19962;47.820;1.930;2024-02-21T12:53:58;100520.63;;;13.20;74.54
33625;BME280;19962;47.820;1.930;2024-02-21T12:56:25;100507.81;;;13.14;74.72